sensor_id;sensor_type;location;lat;lon;timestamp;temperature;humidity
65824;SHT31;52585;47.566;19.056;2022-11-14T00:00:37;10.14;73.31
65824;SHT31;52585;47.566;19.056;2022-11-14T00:03:05;10.14;73.32
65824;SHT31;52585;47.566;19.056;2022-11-14T00:05:32;10.12;73.36
65824;SHT31;52585;47.566;19.056;2022-11-14T00:08:05;10.12;73.21
65824;SHT31;52585;47.566;19.056;2022-11-14T00:10:32;10.11;73.22
65824;SHT31;52585;47.566;19.056;2022-11-14T00:12:57;10.12;73.16
65824;SHT31;52585;47.566;19.056;2022-11-14T00:15:23;10.09;73.14
65824;SHT31;52585;47.566;19.056;2022-11-14T00:17:48;10.10;73.03
65824;SHT31;52585;47.566;19.056;2022-11-14T00:20:14;10.08;72.93
65824;SHT31;52585;47.566;19.056;2022-11-14T00:22:39;10.07;72.89
65824;SHT31;52585;47.566;19.056;2022-11-14T00:25:05;10.05;72.85
65824;SHT31;52585;47.566;19.056;2022-11-14T00:27:31;10.03;72.72
65824;SHT31;52585;47.566;19.056;2022-11-14T00:29:57;10.02;72.61
65824;SHT31;52585;47.566;19.056;2022-11-14T00:32:22;10.01;72.67
65824;SHT31;52585;47.566;19.056;2022-11-14T00:34:48;9.99;72.61
65824;SHT31;52585;47.566;19.056;2022-11-14T00:37:14;9.98;72.64
65824;SHT31;52585;47.566;19.056;2022-11-14T00:39:39;9.98;72.73
65824;SHT31;52585;47.566;19.056;2022-11-14T00:42:05;9.97;72.66
65824;SHT31;52585;47.566;19.056;2022-11-14T00:44:30;9.97;72.43
65824;SHT31;52585;47.566;19.056;2022-11-14T00:46:56;9.95;72.31
65824;SHT31;52585;47.566;19.056;2022-11-14T00:49:22;9.94;72.40
65824;SHT31;52585;47.566;19.056;2022-11-14T00:51:47;9.93;72.26
65824;SHT31;52585;47.566;19.056;2022-11-14T00:54:13;9.90;72.14
65824;SHT31;52585;47.566;19.056;2022-11-14T00:56:38;9.90;72.20
65824;SHT31;52585;47.566;19.056;2022-11-14T00:59:05;9.87;72.13
65824;SHT31;52585;47.566;19.056;2022-11-14T01:01:31;9.86;71.96
65824;SHT31;52585;47.566;19.056;2022-11-14T01:03:56;9.85;71.86
65824;SHT31;52585;47.566;19.056;2022-11-14T01:06:22;9.83;71.88
65824;SHT31;52585;47.566;19.056;2022-11-14T01:08:49;9.82;72.00
65824;SHT31;52585;47.566;19.056;2022-11-14T01:11:17;9.79;72.01
65824;SHT31;52585;47.566;19.056;2022-11-14T01:13:45;9.77;71.92
65824;SHT31;52585;47.566;19.056;2022-11-14T01:16:11;9.75;71.79
65824;SHT31;52585;47.566;19.056;2022-11-14T01:18:37;9.73;71.84
65824;SHT31;52585;47.566;19.056;2022-11-14T01:21:05;9.71;71.79
65824;SHT31;52585;47.566;19.056;2022-11-14T01:23:34;9.68;71.54
65824;SHT31;52585;47.566;19.056;2022-11-14T01:26:04;9.67;71.50
65824;SHT31;52585;47.566;19.056;2022-11-14T01:28:34;9.66;71.53
65824;SHT31;52585;47.566;19.056;2022-11-14T01:31:20;9.63;71.61
65824;SHT31;52585;47.566;19.056;2022-11-14T01:33:49;9.62;71.61
65824;SHT31;52585;47.566;19.056;2022-11-14T01:36:17;9.60;71.58
65824;SHT31;52585;47.566;19.056;2022-11-14T01:38:44;9.58;71.59
65824;SHT31;52585;47.566;19.056;2022-11-14T01:41:12;9.56;71.68
65824;SHT31;52585;47.566;19.056;2022-11-14T01:43:41;9.55;71.68
65824;SHT31;52585;47.566;19.056;2022-11-14T01:48:40;9.52;71.74
65824;SHT31;52585;47.566;19.056;2022-11-14T01:53:51;9.49;71.61
65824;SHT31;52585;47.566;19.056;2022-11-14T01:56:54;9.48;71.47
65824;SHT31;52585;47.566;19.056;2022-11-14T01:59:22;9.47;71.27
65824;SHT31;52585;47.566;19.056;2022-11-14T02:01:55;9.46;71.21
65824;SHT31;52585;47.566;19.056;2022-11-14T02:04:25;9.44;71.29
65824;SHT31;52585;47.566;19.056;2022-11-14T02:07:09;9.44;71.35
65824;SHT31;52585;47.566;19.056;2022-11-14T02:09:37;9.44;71.45
65824;SHT31;52585;47.566;19.056;2022-11-14T02:12:07;9.44;71.36
65824;SHT31;52585;47.566;19.056;2022-11-14T02:14:37;9.43;71.51
65824;SHT31;52585;47.566;19.056;2022-11-14T02:17:04;9.43;71.52
65824;SHT31;52585;47.566;19.056;2022-11-14T02:22:36;9.38;71.36
65824;SHT31;52585;47.566;19.056;2022-11-14T02:25:04;9.37;71.45
65824;SHT31;52585;47.566;19.056;2022-11-14T02:27:35;9.35;71.51
65824;SHT31;52585;47.566;19.056;2022-11-14T02:30:07;9.36;71.52
65824;SHT31;52585;47.566;19.056;2022-11-14T02:32:39;9.36;71.58
65824;SHT31;52585;47.566;19.056;2022-11-14T02:35:05;9.37;71.46
65824;SHT31;52585;47.566;19.056;2022-11-14T02:37:31;9.37;71.51
65824;SHT31;52585;47.566;19.056;2022-11-14T02:39:56;9.36;71.49
65824;SHT31;52585;47.566;19.056;2022-11-14T02:42:22;9.37;71.50
65824;SHT31;52585;47.566;19.056;2022-11-14T02:44:47;9.36;71.45
65824;SHT31;52585;47.566;19.056;2022-11-14T02:47:13;9.34;71.42
65824;SHT31;52585;47.566;19.056;2022-11-14T02:49:38;9.33;71.48
65824;SHT31;52585;47.566;19.056;2022-11-14T02:52:04;9.30;71.48
65824;SHT31;52585;47.566;19.056;2022-11-14T02:54:30;9.28;71.40
65824;SHT31;52585;47.566;19.056;2022-11-14T02:56:55;9.27;71.45
65824;SHT31;52585;47.566;19.056;2022-11-14T02:59:21;9.26;71.45
65824;SHT31;52585;47.566;19.056;2022-11-14T03:01:46;9.24;71.42
65824;SHT31;52585;47.566;19.056;2022-11-14T03:04:12;9.24;71.40
65824;SHT31;52585;47.566;19.056;2022-11-14T03:06:37;9.22;71.42
65824;SHT31;52585;47.566;19.056;2022-11-14T03:09:03;9.23;71.41
65824;SHT31;52585;47.566;19.056;2022-11-14T03:11:29;9.23;71.42
65824;SHT31;52585;47.566;19.056;2022-11-14T03:13:55;9.22;71.40
65824;SHT31;52585;47.566;19.056;2022-11-14T03:16:21;9.23;71.37
65824;SHT31;52585;47.566;19.056;2022-11-14T03:18:46;9.23;71.26
65824;SHT31;52585;47.566;19.056;2022-11-14T03:21:21;9.24;71.21
65824;SHT31;52585;47.566;19.056;2022-11-14T03:23:47;9.23;71.13
65824;SHT31;52585;47.566;19.056;2022-11-14T03:26:14;9.21;71.19
65824;SHT31;52585;47.566;19.056;2022-11-14T03:28:40;9.21;71.11
65824;SHT31;52585;47.566;19.056;2022-11-14T03:31:07;9.20;71.13
65824;SHT31;52585;47.566;19.056;2022-11-14T03:33:35;9.19;71.11
65824;SHT31;52585;47.566;19.056;2022-11-14T03:36:02;9.19;71.14
65824;SHT31;52585;47.566;19.056;2022-11-14T03:38:29;9.19;71.06
65824;SHT31;52585;47.566;19.056;2022-11-14T03:40:56;9.19;70.93
65824;SHT31;52585;47.566;19.056;2022-11-14T03:43:23;9.17;70.89
65824;SHT31;52585;47.566;19.056;2022-11-14T03:45:50;9.17;70.78
65824;SHT31;52585;47.566;19.056;2022-11-14T03:48:16;9.16;70.86
65824;SHT31;52585;47.566;19.056;2022-11-14T03:50:42;9.15;70.93
65824;SHT31;52585;47.566;19.056;2022-11-14T03:53:08;9.14;70.88
65824;SHT31;52585;47.566;19.056;2022-11-14T03:55:35;9.12;70.86
65824;SHT31;52585;47.566;19.056;2022-11-14T03:58:02;9.10;70.94
65824;SHT31;52585;47.566;19.056;2022-11-14T04:00:27;9.10;70.95
65824;SHT31;52585;47.566;19.056;2022-11-14T04:02:53;9.10;70.87
65824;SHT31;52585;47.566;19.056;2022-11-14T04:05:21;9.10;70.84
65824;SHT31;52585;47.566;19.056;2022-11-14T04:07:48;9.09;70.87
65824;SHT31;52585;47.566;19.056;2022-11-14T04:10:14;9.08;70.77
65824;SHT31;52585;47.566;19.056;2022-11-14T04:12:40;9.07;70.82
65824;SHT31;52585;47.566;19.056;2022-11-14T04:15:12;9.06;70.82
65824;SHT31;52585;47.566;19.056;2022-11-14T04:17:38;9.04;70.88
65824;SHT31;52585;47.566;19.056;2022-11-14T04:20:04;9.05;70.93
65824;SHT31;52585;47.566;19.056;2022-11-14T04:22:30;9.03;70.84
65824;SHT31;52585;47.566;19.056;2022-11-14T04:24:55;9.01;70.76
65824;SHT31;52585;47.566;19.056;2022-11-14T04:27:21;8.99;70.75
65824;SHT31;52585;47.566;19.056;2022-11-14T04:29:46;8.97;70.62
65824;SHT31;52585;47.566;19.056;2022-11-14T04:32:11;8.96;70.65
65824;SHT31;52585;47.566;19.056;2022-11-14T04:34:37;8.94;70.64
65824;SHT31;52585;47.566;19.056;2022-11-14T04:37:03;8.93;70.64
65824;SHT31;52585;47.566;19.056;2022-11-14T04:39:28;8.91;70.49
65824;SHT31;52585;47.566;19.056;2022-11-14T04:41:54;8.88;70.31
65824;SHT31;52585;47.566;19.056;2022-11-14T04:44:19;8.86;70.47
65824;SHT31;52585;47.566;19.056;2022-11-14T04:46:44;8.85;70.52
65824;SHT31;52585;47.566;19.056;2022-11-14T04:49:10;8.82;70.48
65824;SHT31;52585;47.566;19.056;2022-11-14T04:51:35;8.79;70.50
65824;SHT31;52585;47.566;19.056;2022-11-14T04:54:01;8.78;70.40
65824;SHT31;52585;47.566;19.056;2022-11-14T04:56:26;8.78;70.55
65824;SHT31;52585;47.566;19.056;2022-11-14T04:58:53;8.79;70.58
65824;SHT31;52585;47.566;19.056;2022-11-14T05:01:19;8.78;70.47
65824;SHT31;52585;47.566;19.056;2022-11-14T05:03:44;8.76;70.49
65824;SHT31;52585;47.566;19.056;2022-11-14T05:06:10;8.75;70.46
65824;SHT31;52585;47.566;19.056;2022-11-14T05:08:35;8.76;70.51
65824;SHT31;52585;47.566;19.056;2022-11-14T05:11:01;8.73;70.41
65824;SHT31;52585;47.566;19.056;2022-11-14T05:13:27;8.70;70.39
65824;SHT31;52585;47.566;19.056;2022-11-14T05:15:57;8.69;70.34
65824;SHT31;52585;47.566;19.056;2022-11-14T05:18:24;8.67;70.33
65824;SHT31;52585;47.566;19.056;2022-11-14T05:20:50;8.66;70.34
65824;SHT31;52585;47.566;19.056;2022-11-14T05:23:20;8.63;70.27
65824;SHT31;52585;47.566;19.056;2022-11-14T05:25:57;8.62;70.24
65824;SHT31;52585;47.566;19.056;2022-11-14T05:28:28;8.60;70.24
65824;SHT31;52585;47.566;19.056;2022-11-14T05:31:27;8.59;70.25
65824;SHT31;52585;47.566;19.056;2022-11-14T05:33:46;8.55;69.96
65824;SHT31;52585;47.566;19.056;2022-11-14T05:36:13;8.55;70.06
65824;SHT31;52585;47.566;19.056;2022-11-14T05:38:41;8.52;69.96
65824;SHT31;52585;47.566;19.056;2022-11-14T05:41:08;8.52;69.92
65824;SHT31;52585;47.566;19.056;2022-11-14T05:43:39;8.52;69.85
65824;SHT31;52585;47.566;19.056;2022-11-14T05:46:06;8.49;69.88
65824;SHT31;52585;47.566;19.056;2022-11-14T05:48:35;8.47;69.91
65824;SHT31;52585;47.566;19.056;2022-11-14T05:51:02;8.46;69.80
65824;SHT31;52585;47.566;19.056;2022-11-14T05:53:31;8.45;69.83
65824;SHT31;52585;47.566;19.056;2022-11-14T05:56:01;8.44;69.81
65824;SHT31;52585;47.566;19.056;2022-11-14T05:58:30;8.42;69.81
65824;SHT31;52585;47.566;19.056;2022-11-14T06:03:48;8.38;69.72
65824;SHT31;52585;47.566;19.056;2022-11-14T06:06:16;8.36;69.75
65824;SHT31;52585;47.566;19.056;2022-11-14T06:08:43;8.35;69.80
65824;SHT31;52585;47.566;19.056;2022-11-14T06:11:13;8.33;69.82
65824;SHT31;52585;47.566;19.056;2022-11-14T06:13:42;8.32;69.76
65824;SHT31;52585;47.566;19.056;2022-11-14T06:16:09;8.29;69.81
65824;SHT31;52585;47.566;19.056;2022-11-14T06:18:44;8.29;69.82
65824;SHT31;52585;47.566;19.056;2022-11-14T06:21:11;8.29;69.80
65824;SHT31;52585;47.566;19.056;2022-11-14T06:23:40;8.29;69.81
65824;SHT31;52585;47.566;19.056;2022-11-14T06:26:09;8.27;69.87
65824;SHT31;52585;47.566;19.056;2022-11-14T06:28:46;8.27;69.91
65824;SHT31;52585;47.566;19.056;2022-11-14T06:31:14;8.26;69.99
65824;SHT31;52585;47.566;19.056;2022-11-14T06:33:41;8.25;69.95
65824;SHT31;52585;47.566;19.056;2022-11-14T06:36:06;8.25;70.04
65824;SHT31;52585;47.566;19.056;2022-11-14T06:38:34;8.24;70.22
65824;SHT31;52585;47.566;19.056;2022-11-14T06:43:39;8.27;70.41
65824;SHT31;52585;47.566;19.056;2022-11-14T06:46:08;8.27;70.48
65824;SHT31;52585;47.566;19.056;2022-11-14T06:48:36;8.28;70.48
65824;SHT31;52585;47.566;19.056;2022-11-14T06:51:04;8.29;70.55
65824;SHT31;52585;47.566;19.056;2022-11-14T06:53:31;8.30;70.57
65824;SHT31;52585;47.566;19.056;2022-11-14T06:56:03;8.31;70.65
65824;SHT31;52585;47.566;19.056;2022-11-14T06:58:33;8.33;70.55
65824;SHT31;52585;47.566;19.056;2022-11-14T07:03:44;8.33;70.62
65824;SHT31;52585;47.566;19.056;2022-11-14T07:06:11;8.33;70.68
65824;SHT31;52585;47.566;19.056;2022-11-14T07:08:40;8.33;70.68
65824;SHT31;52585;47.566;19.056;2022-11-14T07:11:07;8.35;70.61
65824;SHT31;52585;47.566;19.056;2022-11-14T07:13:36;8.36;70.66
65824;SHT31;52585;47.566;19.056;2022-11-14T07:16:02;8.34;70.87
65824;SHT31;52585;47.566;19.056;2022-11-14T07:18:31;8.35;71.05
65824;SHT31;52585;47.566;19.056;2022-11-14T07:20:58;8.35;71.15
65824;SHT31;52585;47.566;19.056;2022-11-14T07:23:26;8.36;71.12
65824;SHT31;52585;47.566;19.056;2022-11-14T07:25:52;8.37;71.27
65824;SHT31;52585;47.566;19.056;2022-11-14T07:28:18;8.39;71.40
65824;SHT31;52585;47.566;19.056;2022-11-14T07:30:44;8.40;71.23
65824;SHT31;52585;47.566;19.056;2022-11-14T07:33:09;8.39;71.30
65824;SHT31;52585;47.566;19.056;2022-11-14T07:35:37;8.39;71.38
65824;SHT31;52585;47.566;19.056;2022-11-14T07:38:04;8.39;71.48
65824;SHT31;52585;47.566;19.056;2022-11-14T07:40:30;8.45;73.01
65824;SHT31;52585;47.566;19.056;2022-11-14T07:42:59;8.65;72.01
65824;SHT31;52585;47.566;19.056;2022-11-14T07:45:26;8.67;71.55
65824;SHT31;52585;47.566;19.056;2022-11-14T07:47:56;8.71;71.69
65824;SHT31;52585;47.566;19.056;2022-11-14T07:50:25;8.74;71.68
65824;SHT31;52585;47.566;19.056;2022-11-14T07:52:52;8.74;71.77
65824;SHT31;52585;47.566;19.056;2022-11-14T07:55:20;8.75;71.69
65824;SHT31;52585;47.566;19.056;2022-11-14T07:57:46;8.75;71.78
65824;SHT31;52585;47.566;19.056;2022-11-14T08:00:13;8.74;71.90
65824;SHT31;52585;47.566;19.056;2022-11-14T08:02:40;8.74;72.13
65824;SHT31;52585;47.566;19.056;2022-11-14T08:05:05;8.76;72.16
65824;SHT31;52585;47.566;19.056;2022-11-14T08:07:31;8.79;72.18
65824;SHT31;52585;47.566;19.056;2022-11-14T08:09:57;8.84;72.12
65824;SHT31;52585;47.566;19.056;2022-11-14T08:12:22;8.89;72.05
65824;SHT31;52585;47.566;19.056;2022-11-14T08:14:48;8.93;71.98
65824;SHT31;52585;47.566;19.056;2022-11-14T08:17:13;8.94;72.16
65824;SHT31;52585;47.566;19.056;2022-11-14T08:19:39;8.94;72.24
65824;SHT31;52585;47.566;19.056;2022-11-14T08:22:05;8.95;72.25
65824;SHT31;52585;47.566;19.056;2022-11-14T08:24:31;8.96;72.34
65824;SHT31;52585;47.566;19.056;2022-11-14T08:26:57;8.97;72.47
65824;SHT31;52585;47.566;19.056;2022-11-14T08:29:22;9.00;72.63
65824;SHT31;52585;47.566;19.056;2022-11-14T08:31:48;9.02;72.70
65824;SHT31;52585;47.566;19.056;2022-11-14T08:34:14;9.06;72.87
65824;SHT31;52585;47.566;19.056;2022-11-14T08:36:39;9.07;72.82
65824;SHT31;52585;47.566;19.056;2022-11-14T08:39:05;9.10;72.91
65824;SHT31;52585;47.566;19.056;2022-11-14T08:41:30;9.13;73.04
65824;SHT31;52585;47.566;19.056;2022-11-14T08:43:56;9.17;73.09
65824;SHT31;52585;47.566;19.056;2022-11-14T08:46:21;9.19;73.04
65824;SHT31;52585;47.566;19.056;2022-11-14T08:48:47;9.23;73.26
65824;SHT31;52585;47.566;19.056;2022-11-14T08:51:12;9.27;73.33
65824;SHT31;52585;47.566;19.056;2022-11-14T08:53:37;9.31;73.34
65824;SHT31;52585;47.566;19.056;2022-11-14T08:56:03;9.34;73.32
65824;SHT31;52585;47.566;19.056;2022-11-14T08:58:29;9.37;73.42
65824;SHT31;52585;47.566;19.056;2022-11-14T09:01:03;9.41;73.35
65824;SHT31;52585;47.566;19.056;2022-11-14T09:03:30;9.45;73.42
65824;SHT31;52585;47.566;19.056;2022-11-14T09:05:57;9.50;73.69
65824;SHT31;52585;47.566;19.056;2022-11-14T09:08:22;9.55;73.77
65824;SHT31;52585;47.566;19.056;2022-11-14T09:10:48;9.58;73.73
65824;SHT31;52585;47.566;19.056;2022-11-14T09:13:14;9.62;73.86
65824;SHT31;52585;47.566;19.056;2022-11-14T09:15:40;9.66;73.87
65824;SHT31;52585;47.566;19.056;2022-11-14T09:18:07;9.70;73.92
65824;SHT31;52585;47.566;19.056;2022-11-14T09:20:34;9.73;73.92
65824;SHT31;52585;47.566;19.056;2022-11-14T09:23:00;9.78;73.89
65824;SHT31;52585;47.566;19.056;2022-11-14T09:25:27;9.82;73.93
65824;SHT31;52585;47.566;19.056;2022-11-14T09:27:54;9.85;73.95
65824;SHT31;52585;47.566;19.056;2022-11-14T09:30:20;9.89;73.87
65824;SHT31;52585;47.566;19.056;2022-11-14T09:32:47;9.93;73.88
65824;SHT31;52585;47.566;19.056;2022-11-14T09:35:13;9.97;73.88
65824;SHT31;52585;47.566;19.056;2022-11-14T09:37:39;10.02;73.84
65824;SHT31;52585;47.566;19.056;2022-11-14T09:40:05;10.07;73.91
65824;SHT31;52585;47.566;19.056;2022-11-14T09:45:16;10.18;73.99
65824;SHT31;52585;47.566;19.056;2022-11-14T09:52:56;10.34;73.96
65824;SHT31;52585;47.566;19.056;2022-11-14T09:55:29;10.38;73.89
65824;SHT31;52585;47.566;19.056;2022-11-14T09:57:59;10.42;73.81
65824;SHT31;52585;47.566;19.056;2022-11-14T10:06:58;10.57;73.85
65824;SHT31;52585;47.566;19.056;2022-11-14T10:15:41;10.74;74.30
65824;SHT31;52585;47.566;19.056;2022-11-14T10:18:34;10.80;74.24
65824;SHT31;52585;47.566;19.056;2022-11-14T10:40:54;11.15;74.07
65824;SHT31;52585;47.566;19.056;2022-11-14T10:46:25;11.22;73.95
65824;SHT31;52585;47.566;19.056;2022-11-14T10:49:00;11.27;74.64
65824;SHT31;52585;47.566;19.056;2022-11-14T10:51:33;11.32;74.56
65824;SHT31;52585;47.566;19.056;2022-11-14T10:56:44;11.43;74.31
65824;SHT31;52585;47.566;19.056;2022-11-14T10:59:15;11.46;74.25
65824;SHT31;52585;47.566;19.056;2022-11-14T11:01:44;11.49;74.17
65824;SHT31;52585;47.566;19.056;2022-11-14T11:04:21;11.52;74.31
65824;SHT31;52585;47.566;19.056;2022-11-14T11:10:05;11.57;74.33
65824;SHT31;52585;47.566;19.056;2022-11-14T11:13:01;11.61;74.31
65824;SHT31;52585;47.566;19.056;2022-11-14T11:15:27;11.63;74.29
65824;SHT31;52585;47.566;19.056;2022-11-14T11:17:56;11.65;74.21
65824;SHT31;52585;47.566;19.056;2022-11-14T11:23:12;11.69;74.47
65824;SHT31;52585;47.566;19.056;2022-11-14T11:25:44;11.73;74.39
65824;SHT31;52585;47.566;19.056;2022-11-14T11:28:19;11.76;74.39
65824;SHT31;52585;47.566;19.056;2022-11-14T11:35:57;11.85;74.44
65824;SHT31;52585;47.566;19.056;2022-11-14T11:38:37;11.88;74.56
65824;SHT31;52585;47.566;19.056;2022-11-14T11:41:06;11.91;74.56
65824;SHT31;52585;47.566;19.056;2022-11-14T11:43:53;11.95;74.47
65824;SHT31;52585;47.566;19.056;2022-11-14T11:49:50;12.02;74.27
65824;SHT31;52585;47.566;19.056;2022-11-14T12:00:36;12.13;74.27
65824;SHT31;52585;47.566;19.056;2022-11-14T12:03:01;12.16;74.14
65824;SHT31;52585;47.566;19.056;2022-11-14T12:11:38;12.23;74.17
65824;SHT31;52585;47.566;19.056;2022-11-14T12:25:21;12.37;73.86
65824;SHT31;52585;47.566;19.056;2022-11-14T12:30:58;12.42;73.80
65824;SHT31;52585;47.566;19.056;2022-11-14T12:33:30;12.44;73.76
65824;SHT31;52585;47.566;19.056;2022-11-14T12:36:05;12.46;73.86
65824;SHT31;52585;47.566;19.056;2022-11-14T12:38:42;12.49;73.84
65824;SHT31;52585;47.566;19.056;2022-11-14T12:41:35;12.52;73.68
65824;SHT31;52585;47.566;19.056;2022-11-14T12:44:17;12.56;73.61
65824;SHT31;52585;47.566;19.056;2022-11-14T12:52:40;12.63;73.40
65824;SHT31;52585;47.566;19.056;2022-11-14T12:58:08;12.67;73.43
65824;SHT31;52585;47.566;19.056;2022-11-14T13:05:58;12.73;73.08
65824;SHT31;52585;47.566;19.056;2022-11-14T13:14:14;12.79;72.99
65824;SHT31;52585;47.566;19.056;2022-11-14T13:19:56;12.81;72.75
65824;SHT31;52585;47.566;19.056;2022-11-14T13:22:42;12.84;72.71
65824;SHT31;52585;47.566;19.056;2022-11-14T13:27:44;12.85;72.64
65824;SHT31;52585;47.566;19.056;2022-11-14T13:30:10;12.86;72.65
65824;SHT31;52585;47.566;19.056;2022-11-14T13:35:10;12.89;72.63
65824;SHT31;52585;47.566;19.056;2022-11-14T13:50:57;12.94;72.46
65824;SHT31;52585;47.566;19.056;2022-11-14T13:53:29;12.94;72.60
65824;SHT31;52585;47.566;19.056;2022-11-14T13:58:38;12.95;72.70
65824;SHT31;52585;47.566;19.056;2022-11-14T14:04:36;12.96;72.41
65824;SHT31;52585;47.566;19.056;2022-11-14T14:19:42;12.95;72.45
65824;SHT31;52585;47.566;19.056;2022-11-14T14:25:22;12.93;72.48
65824;SHT31;52585;47.566;19.056;2022-11-14T14:28:05;12.91;72.49
65824;SHT31;52585;47.566;19.056;2022-11-14T14:30:39;12.88;72.57
65824;SHT31;52585;47.566;19.056;2022-11-14T14:35:49;12.86;72.60
65824;SHT31;52585;47.566;19.056;2022-11-14T14:38:24;12.83;72.63
65824;SHT31;52585;47.566;19.056;2022-11-14T14:40:54;12.81;72.69
65824;SHT31;52585;47.566;19.056;2022-11-14T14:43:42;12.79;72.70
65824;SHT31;52585;47.566;19.056;2022-11-14T14:46:13;12.76;72.74
65824;SHT31;52585;47.566;19.056;2022-11-14T14:48:40;12.73;72.80
65824;SHT31;52585;47.566;19.056;2022-11-14T14:51:11;12.71;72.89
65824;SHT31;52585;47.566;19.056;2022-11-14T14:53:38;12.68;72.92
65824;SHT31;52585;47.566;19.056;2022-11-14T14:56:20;12.66;72.95
65824;SHT31;52585;47.566;19.056;2022-11-14T14:58:51;12.63;72.94
65824;SHT31;52585;47.566;19.056;2022-11-14T15:03:57;12.61;72.93
65824;SHT31;52585;47.566;19.056;2022-11-14T15:06:39;12.57;72.90
65824;SHT31;52585;47.566;19.056;2022-11-14T15:11:56;12.54;72.90
65824;SHT31;52585;47.566;19.056;2022-11-14T15:14:26;12.53;72.83
65824;SHT31;52585;47.566;19.056;2022-11-14T15:16:55;12.52;72.70
65824;SHT31;52585;47.566;19.056;2022-11-14T15:19:24;12.51;72.63
65824;SHT31;52585;47.566;19.056;2022-11-14T15:33:01;12.42;72.17
65824;SHT31;52585;47.566;19.056;2022-11-14T15:35:33;12.41;72.08
65824;SHT31;52585;47.566;19.056;2022-11-14T15:40:46;12.38;71.89
65824;SHT31;52585;47.566;19.056;2022-11-14T15:43:48;12.36;71.84
65824;SHT31;52585;47.566;19.056;2022-11-14T15:48:58;12.32;71.67
65824;SHT31;52585;47.566;19.056;2022-11-14T15:56:56;12.23;71.51
65824;SHT31;52585;47.566;19.056;2022-11-14T15:59:24;12.20;71.51
65824;SHT31;52585;47.566;19.056;2022-11-14T16:02:02;12.16;71.53
65824;SHT31;52585;47.566;19.056;2022-11-14T16:04:39;12.14;71.51
65824;SHT31;52585;47.566;19.056;2022-11-14T16:07:05;12.12;71.51
65824;SHT31;52585;47.566;19.056;2022-11-14T16:09:30;12.08;71.58
65824;SHT31;52585;47.566;19.056;2022-11-14T16:11:56;12.07;71.58
65824;SHT31;52585;47.566;19.056;2022-11-14T16:14:21;12.03;71.48
65824;SHT31;52585;47.566;19.056;2022-11-14T16:16:47;12.01;71.42
65824;SHT31;52585;47.566;19.056;2022-11-14T16:19:13;11.98;71.37
65824;SHT31;52585;47.566;19.056;2022-11-14T16:21:40;11.96;71.49
65824;SHT31;52585;47.566;19.056;2022-11-14T16:24:14;11.93;71.51
65824;SHT31;52585;47.566;19.056;2022-11-14T16:26:49;11.90;71.43
65824;SHT31;52585;47.566;19.056;2022-11-14T16:29:14;11.88;71.57
65824;SHT31;52585;47.566;19.056;2022-11-14T16:31:41;11.85;71.47
65824;SHT31;52585;47.566;19.056;2022-11-14T16:34:14;11.83;71.38
65824;SHT31;52585;47.566;19.056;2022-11-14T16:36:43;11.81;71.33
65824;SHT31;52585;47.566;19.056;2022-11-14T16:39:10;11.78;71.29
65824;SHT31;52585;47.566;19.056;2022-11-14T16:41:38;11.77;71.38
65824;SHT31;52585;47.566;19.056;2022-11-14T16:44:04;11.73;71.45
65824;SHT31;52585;47.566;19.056;2022-11-14T16:46:29;11.72;71.43
65824;SHT31;52585;47.566;19.056;2022-11-14T16:48:55;11.70;71.39
65824;SHT31;52585;47.566;19.056;2022-11-14T16:51:21;11.67;71.28
65824;SHT31;52585;47.566;19.056;2022-11-14T16:53:46;11.64;71.42
65824;SHT31;52585;47.566;19.056;2022-11-14T16:56:12;11.63;71.49
65824;SHT31;52585;47.566;19.056;2022-11-14T16:58:37;11.61;71.40
65824;SHT31;52585;47.566;19.056;2022-11-14T17:01:05;11.59;71.42
65824;SHT31;52585;47.566;19.056;2022-11-14T17:03:32;11.57;71.40
65824;SHT31;52585;47.566;19.056;2022-11-14T17:05:57;11.55;71.41
65824;SHT31;52585;47.566;19.056;2022-11-14T17:08:23;11.52;71.43
65824;SHT31;52585;47.566;19.056;2022-11-14T17:10:48;11.51;71.39
65824;SHT31;52585;47.566;19.056;2022-11-14T17:13:14;11.48;71.50
65824;SHT31;52585;47.566;19.056;2022-11-14T17:15:41;11.46;71.42
65824;SHT31;52585;47.566;19.056;2022-11-14T17:18:07;11.43;71.37
65824;SHT31;52585;47.566;19.056;2022-11-14T17:20:35;11.42;71.38
65824;SHT31;52585;47.566;19.056;2022-11-14T17:23:02;11.39;71.44
65824;SHT31;52585;47.566;19.056;2022-11-14T17:25:28;11.36;71.45
65824;SHT31;52585;47.566;19.056;2022-11-14T17:27:55;11.34;71.38
65824;SHT31;52585;47.566;19.056;2022-11-14T17:30:20;11.31;71.34
65824;SHT31;52585;47.566;19.056;2022-11-14T17:32:46;11.29;71.30
65824;SHT31;52585;47.566;19.056;2022-11-14T17:35:12;11.27;71.25
65824;SHT31;52585;47.566;19.056;2022-11-14T17:37:38;11.24;71.16
65824;SHT31;52585;47.566;19.056;2022-11-14T17:40:03;11.24;71.24
65824;SHT31;52585;47.566;19.056;2022-11-14T17:42:30;11.21;71.27
65824;SHT31;52585;47.566;19.056;2022-11-14T17:44:55;11.19;71.20
65824;SHT31;52585;47.566;19.056;2022-11-14T17:47:25;11.16;71.24
65824;SHT31;52585;47.566;19.056;2022-11-14T17:49:52;11.15;71.20
65824;SHT31;52585;47.566;19.056;2022-11-14T17:52:18;11.13;71.23
65824;SHT31;52585;47.566;19.056;2022-11-14T17:54:43;11.11;71.24
65824;SHT31;52585;47.566;19.056;2022-11-14T17:57:08;11.09;71.21
65824;SHT31;52585;47.566;19.056;2022-11-14T17:59:34;11.06;71.26
65824;SHT31;52585;47.566;19.056;2022-11-14T18:02:00;11.04;71.23
65824;SHT31;52585;47.566;19.056;2022-11-14T18:04:27;11.02;71.08
65824;SHT31;52585;47.566;19.056;2022-11-14T18:06:55;10.99;70.88
65824;SHT31;52585;47.566;19.056;2022-11-14T18:09:20;11.02;71.82
65824;SHT31;52585;47.566;19.056;2022-11-14T18:11:47;11.05;70.87
65824;SHT31;52585;47.566;19.056;2022-11-14T18:14:13;11.02;70.41
65824;SHT31;52585;47.566;19.056;2022-11-14T18:16:39;10.98;70.57
65824;SHT31;52585;47.566;19.056;2022-11-14T18:19:05;10.94;70.45
65824;SHT31;52585;47.566;19.056;2022-11-14T18:21:30;10.90;70.47
65824;SHT31;52585;47.566;19.056;2022-11-14T18:23:57;10.85;70.41
65824;SHT31;52585;47.566;19.056;2022-11-14T18:26:25;10.84;70.25
65824;SHT31;52585;47.566;19.056;2022-11-14T18:28:53;10.79;70.29
65824;SHT31;52585;47.566;19.056;2022-11-14T18:31:25;10.75;70.32
65824;SHT31;52585;47.566;19.056;2022-11-14T18:33:50;10.72;70.30
65824;SHT31;52585;47.566;19.056;2022-11-14T18:36:16;10.69;70.27
65824;SHT31;52585;47.566;19.056;2022-11-14T18:38:42;10.66;70.31
65824;SHT31;52585;47.566;19.056;2022-11-14T18:41:18;10.64;70.32
65824;SHT31;52585;47.566;19.056;2022-11-14T18:43:46;10.61;70.27
65824;SHT31;52585;47.566;19.056;2022-11-14T18:46:13;10.58;70.20
65824;SHT31;52585;47.566;19.056;2022-11-14T18:48:42;10.56;70.24
65824;SHT31;52585;47.566;19.056;2022-11-14T18:51:14;10.54;70.29